sensor_id;sensor_type;location;lat;lon;timestamp;P1;durP1;ratioP1;P2;durP2;ratioP2
4810;SDS011;2419;51.276;6.472;2023-11-21T00:00:03;25.53;;;9.40;;
4810;SDS011;2419;51.276;6.472;2023-11-21T00:02:40;18.67;;;10.03;;
4810;SDS011;2419;51.276;6.472;2023-11-21T00:05:08;20.60;;;9.80;;
4810;SDS011;2419;51.276;6.472;2023-11-21T00:07:37;15.67;;;9.63;;
4810;SDS011;2419;51.276;6.472;2023-11-21T00:10:05;15.67;;;9.20;;
4810;SDS011;2419;51.276;6.472;2023-11-21T00:12:35;15.10;;;8.63;;
4810;SDS011;2419;51.276;6.472;2023-11-21T00:15:03;12.33;;;7.57;;
4810;SDS011;2419;51.276;6.472;2023-11-21T00:17:35;21.20;;;8.37;;
4810;SDS011;2419;51.276;6.472;2023-11-21T00:20:06;14.20;;;8.17;;
4810;SDS011;2419;51.276;6.472;2023-11-21T00:22:35;14.80;;;8.20;;
4810;SDS011;2419;51.276;6.472;2023-11-21T00:25:03;15.87;;;8.03;;
4810;SDS011;2419;51.276;6.472;2023-11-21T00:27:32;12.27;;;8.60;;
4810;SDS011;2419;51.276;6.472;2023-11-21T00:30:01;15.00;;;8.17;;
4810;SDS011;2419;51.276;6.472;2023-11-21T00:32:32;20.53;;;9.20;;
4810;SDS011;2419;51.276;6.472;2023-11-21T00:35:00;21.20;;;8.87;;
4810;SDS011;2419;51.276;6.472;2023-11-21T00:37:30;18.40;;;9.90;;
4810;SDS011;2419;51.276;6.472;2023-11-21T00:39:58;22.50;;;9.93;;
4810;SDS011;2419;51.276;6.472;2023-11-21T00:42:27;16.33;;;10.53;;
4810;SDS011;2419;51.276;6.472;2023-11-21T00:44:55;18.97;;;10.23;;
4810;SDS011;2419;51.276;6.472;2023-11-21T00:47:23;19.73;;;10.00;;
4810;SDS011;2419;51.276;6.472;2023-11-21T00:49:51;21.17;;;10.70;;
4810;SDS011;2419;51.276;6.472;2023-11-21T00:52:19;19.70;;;10.63;;
4810;SDS011;2419;51.276;6.472;2023-11-21T00:54:49;34.20;;;11.20;;
4810;SDS011;2419;51.276;6.472;2023-11-21T00:57:17;16.33;;;9.80;;
4810;SDS011;2419;51.276;6.472;2023-11-21T00:59:45;20.33;;;9.97;;
4810;SDS011;2419;51.276;6.472;2023-11-21T01:02:13;28.37;;;11.00;;
4810;SDS011;2419;51.276;6.472;2023-11-21T01:04:42;22.20;;;10.93;;
4810;SDS011;2419;51.276;6.472;2023-11-21T01:07:10;15.17;;;9.50;;
4810;SDS011;2419;51.276;6.472;2023-11-21T01:09:38;22.43;;;11.03;;
4810;SDS011;2419;51.276;6.472;2023-11-21T01:12:07;26.67;;;11.93;;
4810;SDS011;2419;51.276;6.472;2023-11-21T01:14:35;23.00;;;12.20;;
4810;SDS011;2419;51.276;6.472;2023-11-21T01:17:04;26.20;;;10.90;;
4810;SDS011;2419;51.276;6.472;2023-11-21T01:19:32;17.30;;;10.57;;
4810;SDS011;2419;51.276;6.472;2023-11-21T01:22:01;20.80;;;10.77;;
4810;SDS011;2419;51.276;6.472;2023-11-21T01:24:30;29.33;;;11.57;;
4810;SDS011;2419;51.276;6.472;2023-11-21T01:26:58;26.83;;;11.57;;
4810;SDS011;2419;51.276;6.472;2023-11-21T01:29:28;23.17;;;10.33;;
4810;SDS011;2419;51.276;6.472;2023-11-21T01:31:56;21.07;;;11.50;;
4810;SDS011;2419;51.276;6.472;2023-11-21T01:34:24;21.67;;;12.00;;
4810;SDS011;2419;51.276;6.472;2023-11-21T01:36:54;27.60;;;12.80;;
4810;SDS011;2419;51.276;6.472;2023-11-21T01:39:22;19.17;;;11.10;;
4810;SDS011;2419;51.276;6.472;2023-11-21T01:41:50;20.27;;;11.20;;
4810;SDS011;2419;51.276;6.472;2023-11-21T01:44:19;25.37;;;11.43;;
4810;SDS011;2419;51.276;6.472;2023-11-21T01:46:48;29.70;;;12.03;;
4810;SDS011;2419;51.276;6.472;2023-11-21T01:49:17;26.67;;;12.03;;
4810;SDS011;2419;51.276;6.472;2023-11-21T01:51:47;25.03;;;11.73;;
4810;SDS011;2419;51.276;6.472;2023-11-21T01:54:16;19.33;;;11.00;;
4810;SDS011;2419;51.276;6.472;2023-11-21T01:56:46;22.37;;;12.30;;
4810;SDS011;2419;51.276;6.472;2023-11-21T01:59:16;33.73;;;12.40;;
4810;SDS011;2419;51.276;6.472;2023-11-21T02:01:48;34.43;;;12.17;;
4810;SDS011;2419;51.276;6.472;2023-11-21T02:04:18;24.47;;;11.67;;
4810;SDS011;2419;51.276;6.472;2023-11-21T02:06:47;24.07;;;11.13;;
4810;SDS011;2419;51.276;6.472;2023-11-21T02:09:22;26.40;;;10.90;;
4810;SDS011;2419;51.276;6.472;2023-11-21T02:11:53;20.63;;;10.90;;
4810;SDS011;2419;51.276;6.472;2023-11-21T02:14:24;20.67;;;11.37;;
4810;SDS011;2419;51.276;6.472;2023-11-21T02:16:55;20.47;;;10.70;;
4810;SDS011;2419;51.276;6.472;2023-11-21T02:19:24;21.80;;;11.50;;
4810;SDS011;2419;51.276;6.472;2023-11-21T02:21:52;32.37;;;12.20;;
4810;SDS011;2419;51.276;6.472;2023-11-21T02:24:22;32.73;;;11.50;;
4810;SDS011;2419;51.276;6.472;2023-11-21T02:26:51;23.53;;;11.30;;
4810;SDS011;2419;51.276;6.472;2023-11-21T02:29:20;29.47;;;11.40;;
4810;SDS011;2419;51.276;6.472;2023-11-21T02:31:54;26.20;;;11.17;;
4810;SDS011;2419;51.276;6.472;2023-11-21T02:34:23;24.40;;;11.63;;
4810;SDS011;2419;51.276;6.472;2023-11-21T02:36:52;30.67;;;13.50;;
4810;SDS011;2419;51.276;6.472;2023-11-21T02:39:20;33.77;;;14.00;;
4810;SDS011;2419;51.276;6.472;2023-11-21T02:41:51;27.03;;;12.50;;
4810;SDS011;2419;51.276;6.472;2023-11-21T02:44:19;26.27;;;11.30;;
4810;SDS011;2419;51.276;6.472;2023-11-21T02:46:47;27.73;;;13.00;;
4810;SDS011;2419;51.276;6.472;2023-11-21T02:49:16;31.60;;;12.70;;
4810;SDS011;2419;51.276;6.472;2023-11-21T02:51:44;35.67;;;14.30;;
4810;SDS011;2419;51.276;6.472;2023-11-21T02:54:12;27.97;;;14.17;;
4810;SDS011;2419;51.276;6.472;2023-11-21T02:56:43;31.10;;;13.67;;
4810;SDS011;2419;51.276;6.472;2023-11-21T02:59:12;27.37;;;13.57;;
4810;SDS011;2419;51.276;6.472;2023-11-21T03:01:40;27.87;;;12.83;;
4810;SDS011;2419;51.276;6.472;2023-11-21T03:04:08;25.90;;;11.97;;
4810;SDS011;2419;51.276;6.472;2023-11-21T03:06:37;27.27;;;11.97;;
4810;SDS011;2419;51.276;6.472;2023-11-21T03:09:05;24.90;;;12.23;;
4810;SDS011;2419;51.276;6.472;2023-11-21T03:11:33;29.23;;;12.30;;
4810;SDS011;2419;51.276;6.472;2023-11-21T03:14:02;29.60;;;12.70;;
4810;SDS011;2419;51.276;6.472;2023-11-21T03:16:32;35.17;;;12.80;;
4810;SDS011;2419;51.276;6.472;2023-11-21T03:19:00;30.80;;;12.80;;
4810;SDS011;2419;51.276;6.472;2023-11-21T03:21:28;32.73;;;13.30;;
4810;SDS011;2419;51.276;6.472;2023-11-21T03:23:56;38.70;;;13.13;;
4810;SDS011;2419;51.276;6.472;2023-11-21T03:26:26;24.70;;;11.80;;
4810;SDS011;2419;51.276;6.472;2023-11-21T03:28:54;30.47;;;12.50;;
4810;SDS011;2419;51.276;6.472;2023-11-21T03:31:24;27.10;;;12.53;;
4810;SDS011;2419;51.276;6.472;2023-11-21T03:33:53;28.57;;;12.27;;
4810;SDS011;2419;51.276;6.472;2023-11-21T03:36:21;34.70;;;12.70;;
4810;SDS011;2419;51.276;6.472;2023-11-21T03:38:52;31.07;;;14.50;;
4810;SDS011;2419;51.276;6.472;2023-11-21T03:41:20;27.03;;;11.80;;
4810;SDS011;2419;51.276;6.472;2023-11-21T03:43:48;34.20;;;13.40;;
4810;SDS011;2419;51.276;6.472;2023-11-21T03:46:17;26.90;;;13.07;;
4810;SDS011;2419;51.276;6.472;2023-11-21T03:48:47;26.20;;;12.03;;
4810;SDS011;2419;51.276;6.472;2023-11-21T03:51:15;33.37;;;13.60;;
4810;SDS011;2419;51.276;6.472;2023-11-21T03:53:43;28.60;;;11.90;;
4810;SDS011;2419;51.276;6.472;2023-11-21T03:56:11;36.80;;;14.43;;
4810;SDS011;2419;51.276;6.472;2023-11-21T03:58:39;32.83;;;13.47;;
4810;SDS011;2419;51.276;6.472;2023-11-21T04:01:07;39.33;;;14.33;;
4810;SDS011;2419;51.276;6.472;2023-11-21T04:03:35;30.57;;;14.33;;
4810;SDS011;2419;51.276;6.472;2023-11-21T04:06:05;30.73;;;13.40;;
4810;SDS011;2419;51.276;6.472;2023-11-21T04:08:33;30.90;;;13.17;;
4810;SDS011;2419;51.276;6.472;2023-11-21T04:11:01;34.87;;;13.63;;
4810;SDS011;2419;51.276;6.472;2023-11-21T04:13:30;28.70;;;12.93;;
4810;SDS011;2419;51.276;6.472;2023-11-21T04:15:58;33.10;;;12.17;;
4810;SDS011;2419;51.276;6.472;2023-11-21T04:18:29;30.57;;;13.40;;
4810;SDS011;2419;51.276;6.472;2023-11-21T04:20:57;39.67;;;14.37;;
4810;SDS011;2419;51.276;6.472;2023-11-21T04:23:27;37.30;;;14.50;;
4810;SDS011;2419;51.276;6.472;2023-11-21T04:25:56;36.40;;;12.70;;
4810;SDS011;2419;51.276;6.472;2023-11-21T04:28:25;31.53;;;12.77;;
4810;SDS011;2419;51.276;6.472;2023-11-21T04:30:53;41.50;;;13.10;;
4810;SDS011;2419;51.276;6.472;2023-11-21T04:33:21;37.37;;;13.50;;
4810;SDS011;2419;51.276;6.472;2023-11-21T04:35:49;34.17;;;13.60;;
4810;SDS011;2419;51.276;6.472;2023-11-21T04:38:18;31.20;;;13.43;;
4810;SDS011;2419;51.276;6.472;2023-11-21T04:40:47;26.40;;;12.67;;
4810;SDS011;2419;51.276;6.472;2023-11-21T04:43:15;35.50;;;12.30;;
4810;SDS011;2419;51.276;6.472;2023-11-21T04:45:44;26.73;;;11.60;;
4810;SDS011;2419;51.276;6.472;2023-11-21T04:48:12;31.07;;;12.07;;
4810;SDS011;2419;51.276;6.472;2023-11-21T04:50:40;29.93;;;11.33;;
4810;SDS011;2419;51.276;6.472;2023-11-21T04:53:08;30.23;;;12.70;;
4810;SDS011;2419;51.276;6.472;2023-11-21T04:55:39;24.03;;;11.60;;
4810;SDS011;2419;51.276;6.472;2023-11-21T04:58:09;31.67;;;13.80;;
4810;SDS011;2419;51.276;6.472;2023-11-21T05:00:38;30.67;;;13.60;;
4810;SDS011;2419;51.276;6.472;2023-11-21T05:03:06;32.43;;;14.20;;
4810;SDS011;2419;51.276;6.472;2023-11-21T05:05:34;32.07;;;14.17;;
4810;SDS011;2419;51.276;6.472;2023-11-21T05:08:02;43.43;;;14.07;;
4810;SDS011;2419;51.276;6.472;2023-11-21T05:10:31;40.43;;;14.47;;
4810;SDS011;2419;51.276;6.472;2023-11-21T05:13:00;30.00;;;14.33;;
4810;SDS011;2419;51.276;6.472;2023-11-21T05:15:30;29.07;;;12.77;;
4810;SDS011;2419;51.276;6.472;2023-11-21T05:17:58;37.27;;;13.30;;
4810;SDS011;2419;51.276;6.472;2023-11-21T05:20:26;34.40;;;14.27;;
4810;SDS011;2419;51.276;6.472;2023-11-21T05:22:55;30.47;;;13.23;;
4810;SDS011;2419;51.276;6.472;2023-11-21T05:25:25;37.20;;;14.80;;
4810;SDS011;2419;51.276;6.472;2023-11-21T05:27:56;40.27;;;18.73;;
4810;SDS011;2419;51.276;6.472;2023-11-21T05:30:27;36.73;;;15.27;;
4810;SDS011;2419;51.276;6.472;2023-11-21T05:32:56;34.57;;;14.10;;
4810;SDS011;2419;51.276;6.472;2023-11-21T05:35:24;33.87;;;14.63;;
4810;SDS011;2419;51.276;6.472;2023-11-21T05:37:53;32.57;;;14.00;;
4810;SDS011;2419;51.276;6.472;2023-11-21T05:40:21;35.53;;;15.13;;
4810;SDS011;2419;51.276;6.472;2023-11-21T05:42:49;34.50;;;14.87;;
4810;SDS011;2419;51.276;6.472;2023-11-21T05:45:18;31.00;;;13.30;;
4810;SDS011;2419;51.276;6.472;2023-11-21T05:47:47;34.90;;;13.90;;
4810;SDS011;2419;51.276;6.472;2023-11-21T05:50:16;34.43;;;14.93;;
4810;SDS011;2419;51.276;6.472;2023-11-21T05:52:45;32.47;;;15.33;;
4810;SDS011;2419;51.276;6.472;2023-11-21T05:55:14;31.30;;;14.60;;
4810;SDS011;2419;51.276;6.472;2023-11-21T05:57:43;38.97;;;15.47;;
4810;SDS011;2419;51.276;6.472;2023-11-21T06:00:12;36.40;;;16.20;;
4810;SDS011;2419;51.276;6.472;2023-11-21T06:02:46;40.83;;;15.10;;
4810;SDS011;2419;51.276;6.472;2023-11-21T06:05:18;34.70;;;14.60;;
4810;SDS011;2419;51.276;6.472;2023-11-21T06:07:49;28.60;;;13.60;;
4810;SDS011;2419;51.276;6.472;2023-11-21T06:10:19;31.60;;;15.10;;
4810;SDS011;2419;51.276;6.472;2023-11-21T06:12:48;33.73;;;15.67;;
4810;SDS011;2419;51.276;6.472;2023-11-21T06:15:16;39.60;;;16.80;;
4810;SDS011;2419;51.276;6.472;2023-11-21T06:17:45;42.10;;;17.03;;
4810;SDS011;2419;51.276;6.472;2023-11-21T06:20:20;43.10;;;16.60;;
4810;SDS011;2419;51.276;6.472;2023-11-21T06:22:49;44.30;;;16.90;;
4810;SDS011;2419;51.276;6.472;2023-11-21T06:25:18;47.90;;;17.93;;
4810;SDS011;2419;51.276;6.472;2023-11-21T06:27:47;42.60;;;19.67;;
4810;SDS011;2419;51.276;6.472;2023-11-21T06:30:15;46.27;;;18.33;;
4810;SDS011;2419;51.276;6.472;2023-11-21T06:32:45;53.47;;;18.77;;
4810;SDS011;2419;51.276;6.472;2023-11-21T06:35:14;52.33;;;20.23;;
4810;SDS011;2419;51.276;6.472;2023-11-21T06:37:45;48.33;;;20.17;;
4810;SDS011;2419;51.276;6.472;2023-11-21T06:40:16;59.03;;;19.47;;
4810;SDS011;2419;51.276;6.472;2023-11-21T06:42:46;67.87;;;20.00;;
4810;SDS011;2419;51.276;6.472;2023-11-21T06:45:15;52.43;;;20.40;;
4810;SDS011;2419;51.276;6.472;2023-11-21T06:47:43;52.27;;;20.20;;
4810;SDS011;2419;51.276;6.472;2023-11-21T06:50:12;55.13;;;19.33;;
4810;SDS011;2419;51.276;6.472;2023-11-21T06:52:40;59.87;;;21.70;;
4810;SDS011;2419;51.276;6.472;2023-11-21T06:55:10;50.10;;;20.70;;
4810;SDS011;2419;51.276;6.472;2023-11-21T06:57:39;66.53;;;21.53;;
4810;SDS011;2419;51.276;6.472;2023-11-21T07:00:08;56.40;;;21.30;;
4810;SDS011;2419;51.276;6.472;2023-11-21T07:02:37;58.87;;;21.33;;
4810;SDS011;2419;51.276;6.472;2023-11-21T07:05:06;56.07;;;21.20;;
4810;SDS011;2419;51.276;6.472;2023-11-21T07:07:34;56.90;;;20.37;;
4810;SDS011;2419;51.276;6.472;2023-11-21T07:10:04;56.30;;;20.03;;
4810;SDS011;2419;51.276;6.472;2023-11-21T07:12:34;56.03;;;20.60;;
4810;SDS011;2419;51.276;6.472;2023-11-21T07:15:02;67.27;;;21.70;;
4810;SDS011;2419;51.276;6.472;2023-11-21T07:17:35;58.70;;;21.23;;
4810;SDS011;2419;51.276;6.472;2023-11-21T07:20:07;70.33;;;22.63;;
4810;SDS011;2419;51.276;6.472;2023-11-21T07:22:37;73.90;;;22.60;;
4810;SDS011;2419;51.276;6.472;2023-11-21T07:25:05;64.53;;;20.80;;
4810;SDS011;2419;51.276;6.472;2023-11-21T07:27:37;50.60;;;21.57;;
4810;SDS011;2419;51.276;6.472;2023-11-21T07:30:05;59.90;;;19.67;;
4810;SDS011;2419;51.276;6.472;2023-11-21T07:32:36;77.50;;;21.90;;
4810;SDS011;2419;51.276;6.472;2023-11-21T07:35:06;62.70;;;20.90;;
4810;SDS011;2419;51.276;6.472;2023-11-21T07:37:35;65.33;;;23.47;;
4810;SDS011;2419;51.276;6.472;2023-11-21T07:40:04;61.97;;;19.50;;
4810;SDS011;2419;51.276;6.472;2023-11-21T07:42:34;65.97;;;23.73;;
4810;SDS011;2419;51.276;6.472;2023-11-21T07:45:04;58.70;;;21.07;;
4810;SDS011;2419;51.276;6.472;2023-11-21T07:47:34;62.60;;;22.07;;
4810;SDS011;2419;51.276;6.472;2023-11-21T07:50:03;73.93;;;21.77;;
4810;SDS011;2419;51.276;6.472;2023-11-21T07:52:31;57.00;;;21.93;;
4810;SDS011;2419;51.276;6.472;2023-11-21T07:55:00;67.07;;;22.10;;
4810;SDS011;2419;51.276;6.472;2023-11-21T07:57:28;73.90;;;25.03;;
4810;SDS011;2419;51.276;6.472;2023-11-21T07:59:57;62.93;;;21.93;;
4810;SDS011;2419;51.276;6.472;2023-11-21T08:02:26;60.00;;;21.63;;
4810;SDS011;2419;51.276;6.472;2023-11-21T08:04:55;74.37;;;23.20;;
4810;SDS011;2419;51.276;6.472;2023-11-21T08:07:23;63.53;;;21.30;;
4810;SDS011;2419;51.276;6.472;2023-11-21T08:09:52;72.77;;;21.20;;
4810;SDS011;2419;51.276;6.472;2023-11-21T08:12:20;64.33;;;21.17;;
4810;SDS011;2419;51.276;6.472;2023-11-21T08:14:48;63.30;;;21.60;;
4810;SDS011;2419;51.276;6.472;2023-11-21T08:17:17;65.20;;;20.60;;
4810;SDS011;2419;51.276;6.472;2023-11-21T08:19:47;57.20;;;21.13;;
4810;SDS011;2419;51.276;6.472;2023-11-21T08:22:16;67.17;;;21.33;;
4810;SDS011;2419;51.276;6.472;2023-11-21T08:24:44;58.23;;;19.23;;
4810;SDS011;2419;51.276;6.472;2023-11-21T08:27:13;59.47;;;19.63;;
4810;SDS011;2419;51.276;6.472;2023-11-21T08:29:42;55.93;;;19.20;;
4810;SDS011;2419;51.276;6.472;2023-11-21T08:32:10;50.73;;;19.57;;
4810;SDS011;2419;51.276;6.472;2023-11-21T08:34:39;46.33;;;18.10;;
4810;SDS011;2419;51.276;6.472;2023-11-21T08:37:09;49.27;;;20.00;;
4810;SDS011;2419;51.276;6.472;2023-11-21T08:39:38;43.43;;;17.53;;
4810;SDS011;2419;51.276;6.472;2023-11-21T08:42:08;47.63;;;17.40;;
4810;SDS011;2419;51.276;6.472;2023-11-21T08:44:36;44.57;;;17.77;;
4810;SDS011;2419;51.276;6.472;2023-11-21T08:47:05;41.00;;;18.30;;
4810;SDS011;2419;51.276;6.472;2023-11-21T08:49:34;45.93;;;17.37;;
4810;SDS011;2419;51.276;6.472;2023-11-21T08:52:04;41.33;;;16.63;;
4810;SDS011;2419;51.276;6.472;2023-11-21T08:54:33;34.97;;;15.97;;
4810;SDS011;2419;51.276;6.472;2023-11-21T08:57:01;46.83;;;17.00;;
4810;SDS011;2419;51.276;6.472;2023-11-21T08:59:30;31.97;;;15.03;;
4810;SDS011;2419;51.276;6.472;2023-11-21T09:01:58;35.67;;;15.40;;
4810;SDS011;2419;51.276;6.472;2023-11-21T09:04:26;34.73;;;15.53;;
4810;SDS011;2419;51.276;6.472;2023-11-21T09:06:54;36.83;;;15.77;;
4810;SDS011;2419;51.276;6.472;2023-11-21T09:09:23;49.07;;;19.47;;
4810;SDS011;2419;51.276;6.472;2023-11-21T09:11:51;38.57;;;16.73;;
4810;SDS011;2419;51.276;6.472;2023-11-21T09:14:19;48.83;;;15.90;;
4810;SDS011;2419;51.276;6.472;2023-11-21T09:16:47;58.93;;;17.70;;
4810;SDS011;2419;51.276;6.472;2023-11-21T09:19:17;79.53;;;18.87;;
4810;SDS011;2419;51.276;6.472;2023-11-21T09:21:45;51.73;;;16.80;;
4810;SDS011;2419;51.276;6.472;2023-11-21T09:24:13;32.73;;;14.73;;
4810;SDS011;2419;51.276;6.472;2023-11-21T09:26:43;36.07;;;15.07;;
4810;SDS011;2419;51.276;6.472;2023-11-21T09:29:11;28.20;;;13.87;;
4810;SDS011;2419;51.276;6.472;2023-11-21T09:31:40;34.97;;;14.80;;
4810;SDS011;2419;51.276;6.472;2023-11-21T09:34:08;31.07;;;13.60;;
4810;SDS011;2419;51.276;6.472;2023-11-21T09:36:37;29.30;;;14.03;;
4810;SDS011;2419;51.276;6.472;2023-11-21T09:39:05;31.40;;;14.50;;
4810;SDS011;2419;51.276;6.472;2023-11-21T09:41:37;33.77;;;13.77;;
4810;SDS011;2419;51.276;6.472;2023-11-21T09:44:17;33.90;;;13.80;;
4810;SDS011;2419;51.276;6.472;2023-11-21T09:46:49;34.60;;;14.57;;
4810;SDS011;2419;51.276;6.472;2023-11-21T09:49:21;30.97;;;14.17;;
4810;SDS011;2419;51.276;6.472;2023-11-21T09:51:53;36.10;;;14.50;;
4810;SDS011;2419;51.276;6.472;2023-11-21T09:54:27;37.43;;;14.27;;
4810;SDS011;2419;51.276;6.472;2023-11-21T09:56:55;30.40;;;14.43;;
4810;SDS011;2419;51.276;6.472;2023-11-21T09:59:25;53.23;;;15.40;;
4810;SDS011;2419;51.276;6.472;2023-11-21T10:01:58;50.80;;;17.80;;
4810;SDS011;2419;51.276;6.472;2023-11-21T10:04:27;41.50;;;15.47;;
4810;SDS011;2419;51.276;6.472;2023-11-21T10:06:55;31.20;;;14.53;;
4810;SDS011;2419;51.276;6.472;2023-11-21T10:09:24;37.80;;;15.87;;
4810;SDS011;2419;51.276;6.472;2023-11-21T10:11:53;42.60;;;16.97;;
4810;SDS011;2419;51.276;6.472;2023-11-21T10:14:23;47.33;;;16.47;;
4810;SDS011;2419;51.276;6.472;2023-11-21T10:16:55;34.53;;;13.63;;
4810;SDS011;2419;51.276;6.472;2023-11-21T10:19:24;24.20;;;13.47;;
4810;SDS011;2419;51.276;6.472;2023-11-21T10:21:53;32.23;;;13.27;;
4810;SDS011;2419;51.276;6.472;2023-11-21T10:24:24;28.23;;;15.13;;
4810;SDS011;2419;51.276;6.472;2023-11-21T10:26:52;25.57;;;12.93;;
4810;SDS011;2419;51.276;6.472;2023-11-21T10:29:20;27.93;;;14.73;;
4810;SDS011;2419;51.276;6.472;2023-11-21T10:31:50;27.50;;;12.87;;
4810;SDS011;2419;51.276;6.472;2023-11-21T10:34:21;33.17;;;13.37;;
4810;SDS011;2419;51.276;6.472;2023-11-21T10:36:49;25.83;;;12.50;;
4810;SDS011;2419;51.276;6.472;2023-11-21T10:39:17;26.07;;;13.80;;
4810;SDS011;2419;51.276;6.472;2023-11-21T10:41:47;26.10;;;13.80;;
4810;SDS011;2419;51.276;6.472;2023-11-21T10:44:16;26.40;;;11.90;;
4810;SDS011;2419;51.276;6.472;2023-11-21T10:46:48;24.23;;;11.60;;
4810;SDS011;2419;51.276;6.472;2023-11-21T10:49:18;27.97;;;12.40;;
4810;SDS011;2419;51.276;6.472;2023-11-21T10:51:47;23.97;;;12.77;;
4810;SDS011;2419;51.276;6.472;2023-11-21T10:54:18;24.70;;;12.23;;
4810;SDS011;2419;51.276;6.472;2023-11-21T10:56:48;25.00;;;12.57;;
4810;SDS011;2419;51.276;6.472;2023-11-21T10:59:18;27.63;;;13.30;;
4810;SDS011;2419;51.276;6.472;2023-11-21T11:01:51;52.70;;;16.13;;
4810;SDS011;2419;51.276;6.472;2023-11-21T11:04:21;33.93;;;13.13;;
4810;SDS011;2419;51.276;6.472;2023-11-21T11:06:54;23.00;;;12.83;;
4810;SDS011;2419;51.276;6.472;2023-11-21T11:09:23;24.00;;;12.40;;
4810;SDS011;2419;51.276;6.472;2023-11-21T11:11:52;26.00;;;11.93;;
4810;SDS011;2419;51.276;6.472;2023-11-21T11:14:20;21.00;;;12.50;;
4810;SDS011;2419;51.276;6.472;2023-11-21T11:16:53;21.20;;;11.83;;
4810;SDS011;2419;51.276;6.472;2023-11-21T11:19:23;22.07;;;10.70;;
4810;SDS011;2419;51.276;6.472;2023-11-21T11:21:53;28.57;;;12.23;;
4810;SDS011;2419;51.276;6.472;2023-11-21T11:24:36;25.57;;;11.13;;
4810;SDS011;2419;51.276;6.472;2023-11-21T11:27:19;20.70;;;11.47;;
4810;SDS011;2419;51.276;6.472;2023-11-21T11:29:59;24.73;;;11.87;;
4810;SDS011;2419;51.276;6.472;2023-11-21T11:32:40;20.43;;;10.50;;
4810;SDS011;2419;51.276;6.472;2023-11-21T11:35:22;27.00;;;11.80;;
4810;SDS011;2419;51.276;6.472;2023-11-21T11:37:58;21.00;;;10.97;;
4810;SDS011;2419;51.276;6.472;2023-11-21T11:40:38;27.73;;;11.87;;
4810;SDS011;2419;51.276;6.472;2023-11-21T11:43:07;25.87;;;11.50;;
4810;SDS011;2419;51.276;6.472;2023-11-21T11:45:35;23.37;;;11.83;;
4810;SDS011;2419;51.276;6.472;2023-11-21T11:48:08;23.53;;;10.73;;
4810;SDS011;2419;51.276;6.472;2023-11-21T11:50:43;27.07;;;11.60;;
4810;SDS011;2419;51.276;6.472;2023-11-21T11:53:35;21.10;;;11.63;;
4810;SDS011;2419;51.276;6.472;2023-11-21T11:59:01;20.20;;;10.43;;
4810;SDS011;2419;51.276;6.472;2023-11-21T12:01:31;28.17;;;12.33;;
4810;SDS011;2419;51.276;6.472;2023-11-21T12:07:02;16.50;;;9.57;;
4810;SDS011;2419;51.276;6.472;2023-11-21T12:09:31;18.67;;;9.77;;
4810;SDS011;2419;51.276;6.472;2023-11-21T12:12:00;25.63;;;10.57;;
4810;SDS011;2419;51.276;6.472;2023-11-21T12:14:30;21.80;;;9.80;;
4810;SDS011;2419;51.276;6.472;2023-11-21T12:16:58;20.53;;;10.20;;
4810;SDS011;2419;51.276;6.472;2023-11-21T12:19:26;20.20;;;10.77;;
4810;SDS011;2419;51.276;6.472;2023-11-21T12:21:55;20.07;;;11.03;;
4810;SDS011;2419;51.276;6.472;2023-11-21T12:24:24;25.03;;;10.13;;
4810;SDS011;2419;51.276;6.472;2023-11-21T12:26:55;25.13;;;11.57;;
4810;SDS011;2419;51.276;6.472;2023-11-21T12:29:23;23.13;;;10.50;;
4810;SDS011;2419;51.276;6.472;2023-11-21T12:31:51;21.30;;;10.57;;
4810;SDS011;2419;51.276;6.472;2023-11-21T12:34:19;27.90;;;12.07;;
4810;SDS011;2419;51.276;6.472;2023-11-21T12:36:47;25.13;;;10.83;;
4810;SDS011;2419;51.276;6.472;2023-11-21T12:39:16;28.97;;;12.20;;
4810;SDS011;2419;51.276;6.472;2023-11-21T12:41:45;26.17;;;11.77;;
4810;SDS011;2419;51.276;6.472;2023-11-21T12:44:13;26.67;;;12.80;;
4810;SDS011;2419;51.276;6.472;2023-11-21T12:46:42;27.70;;;11.73;;
4810;SDS011;2419;51.276;6.472;2023-11-21T12:49:12;29.53;;;13.03;;
4810;SDS011;2419;51.276;6.472;2023-11-21T12:54:13;32.63;;;14.23;;
4810;SDS011;2419;51.276;6.472;2023-11-21T12:56:46;191.57;;;29.67;;
4810;SDS011;2419;51.276;6.472;2023-11-21T12:59:15;239.63;;;34.77;;
4810;SDS011;2419;51.276;6.472;2023-11-21T13:01:44;79.93;;;20.63;;
4810;SDS011;2419;51.276;6.472;2023-11-21T13:04:15;45.43;;;14.83;;
4810;SDS011;2419;51.276;6.472;2023-11-21T13:06:45;85.33;;;18.47;;
4810;SDS011;2419;51.276;6.472;2023-11-21T13:09:13;32.60;;;12.80;;
4810;SDS011;2419;51.276;6.472;2023-11-21T13:11:49;26.00;;;12.67;;
4810;SDS011;2419;51.276;6.472;2023-11-21T13:14:17;34.63;;;13.30;;
4810;SDS011;2419;51.276;6.472;2023-11-21T13:16:45;29.70;;;12.80;;
4810;SDS011;2419;51.276;6.472;2023-11-21T13:19:15;26.30;;;13.43;;
4810;SDS011;2419;51.276;6.472;2023-11-21T13:21:43;29.43;;;13.10;;
4810;SDS011;2419;51.276;6.472;2023-11-21T13:24:11;30.27;;;13.67;;
4810;SDS011;2419;51.276;6.472;2023-11-21T13:26:39;29.57;;;12.87;;
4810;SDS011;2419;51.276;6.472;2023-11-21T13:29:08;32.33;;;12.70;;
4810;SDS011;2419;51.276;6.472;2023-11-21T13:31:39;31.30;;;13.80;;
4810;SDS011;2419;51.276;6.472;2023-11-21T13:34:07;22.33;;;12.10;;
4810;SDS011;2419;51.276;6.472;2023-11-21T13:36:35;29.63;;;12.70;;
4810;SDS011;2419;51.276;6.472;2023-11-21T13:39:03;111.43;;;22.00;;
4810;SDS011;2419;51.276;6.472;2023-11-21T13:41:35;41.13;;;15.30;;
4810;SDS011;2419;51.276;6.472;2023-11-21T13:44:05;29.83;;;14.17;;
4810;SDS011;2419;51.276;6.472;2023-11-21T13:46:44;31.90;;;14.10;;
4810;SDS011;2419;51.276;6.472;2023-11-21T13:49:13;29.33;;;14.07;;
4810;SDS011;2419;51.276;6.472;2023-11-21T13:51:42;30.83;;;15.40;;
4810;SDS011;2419;51.276;6.472;2023-11-21T13:54:12;28.90;;;14.40;;
4810;SDS011;2419;51.276;6.472;2023-11-21T13:56:41;26.90;;;13.07;;
4810;SDS011;2419;51.276;6.472;2023-11-21T13:59:11;26.80;;;12.80;;
4810;SDS011;2419;51.276;6.472;2023-11-21T14:01:48;38.53;;;12.63;;
4810;SDS011;2419;51.276;6.472;2023-11-21T14:04:26;33.17;;;13.93;;
4810;SDS011;2419;51.276;6.472;2023-11-21T14:07:17;22.97;;;13.20;;
4810;SDS011;2419;51.276;6.472;2023-11-21T14:09:55;23.33;;;12.90;;
4810;SDS011;2419;51.276;6.472;2023-11-21T14:12:26;25.67;;;13.70;;
4810;SDS011;2419;51.276;6.472;2023-11-21T14:14:55;23.83;;;12.37;;
4810;SDS011;2419;51.276;6.472;2023-11-21T14:17:25;25.67;;;13.40;;
4810;SDS011;2419;51.276;6.472;2023-11-21T14:19:54;27.60;;;12.80;;
4810;SDS011;2419;51.276;6.472;2023-11-21T14:22:22;37.70;;;13.37;;
4810;SDS011;2419;51.276;6.472;2023-11-21T14:24:52;26.40;;;11.83;;
4810;SDS011;2419;51.276;6.472;2023-11-21T14:27:22;22.20;;;11.10;;
4810;SDS011;2419;51.276;6.472;2023-11-21T14:29:50;20.30;;;10.90;;
4810;SDS011;2419;51.276;6.472;2023-11-21T14:32:19;22.90;;;11.13;;
4810;SDS011;2419;51.276;6.472;2023-11-21T14:34:49;19.13;;;10.10;;
4810;SDS011;2419;51.276;6.472;2023-11-21T14:37:17;22.60;;;11.00;;
4810;SDS011;2419;51.276;6.472;2023-11-21T14:39:46;19.40;;;10.33;;
4810;SDS011;2419;51.276;6.472;2023-11-21T14:42:16;25.03;;;11.20;;
4810;SDS011;2419;51.276;6.472;2023-11-21T14:44:50;18.30;;;11.03;;
4810;SDS011;2419;51.276;6.472;2023-11-21T14:47:18;21.83;;;11.37;;
4810;SDS011;2419;51.276;6.472;2023-11-21T14:49:53;22.47;;;11.67;;
4810;SDS011;2419;51.276;6.472;2023-11-21T14:52:23;25.83;;;11.00;;
4810;SDS011;2419;51.276;6.472;2023-11-21T14:55:00;23.63;;;9.60;;
4810;SDS011;2419;51.276;6.472;2023-11-21T14:57:42;22.37;;;11.70;;
4810;SDS011;2419;51.276;6.472;2023-11-21T15:00:16;25.20;;;13.10;;
4810;SDS011;2419;51.276;6.472;2023-11-21T15:03:04;27.20;;;13.00;;
4810;SDS011;2419;51.276;6.472;2023-11-21T15:05:35;29.03;;;10.97;;
4810;SDS011;2419;51.276;6.472;2023-11-21T15:08:02;23.30;;;11.20;;
4810;SDS011;2419;51.276;6.472;2023-11-21T15:10:45;24.10;;;10.90;;